createdAt,value
2023-02-12T00:00:16.898Z,41.48
2023-02-12T00:02:19.044Z,41.31
2023-02-12T00:04:20.712Z,41.20
2023-02-12T00:06:22.919Z,41.52
2023-02-12T00:08:24.620Z,41.48
2023-02-12T00:10:26.314Z,40.85
2023-02-12T00:12:27.931Z,41.00
2023-02-12T00:14:29.543Z,40.62
2023-02-12T00:16:31.274Z,40.77
2023-02-12T00:18:32.931Z,40.43
2023-02-12T00:20:34.899Z,40.80
2023-02-12T00:22:36.582Z,41.18
2023-02-12T00:24:38.240Z,41.05
2023-02-12T00:26:39.966Z,40.65
2023-02-12T00:28:41.940Z,40.76
2023-02-12T00:30:43.793Z,40.73
2023-02-12T00:32:46.422Z,40.81
2023-02-12T00:34:48.077Z,40.51
2023-02-12T00:36:49.664Z,40.55
2023-02-12T00:38:53.067Z,41.18
2023-02-12T00:40:54.886Z,41.46
2023-02-12T00:42:56.479Z,41.40
2023-02-12T00:44:58.109Z,41.75
2023-02-12T00:47:02.476Z,41.43
2023-02-12T00:49:04.165Z,41.00
2023-02-12T00:51:06.040Z,40.66
2023-02-12T00:53:08.394Z,40.31
2023-02-12T00:55:10.032Z,40.86
2023-02-12T00:57:11.696Z,40.47
2023-02-12T00:59:13.279Z,40.65
2023-02-12T01:01:15.054Z,40.79
2023-02-12T01:03:17.108Z,40.60
2023-02-12T01:05:19.717Z,41.14
2023-02-12T01:07:21.565Z,40.84
2023-02-12T01:09:23.222Z,40.97
2023-02-12T01:11:24.810Z,40.75
2023-02-12T01:13:27.398Z,40.83
2023-02-12T01:15:29.066Z,40.96
2023-02-12T01:17:30.684Z,41.02
2023-02-12T01:19:32.379Z,41.09
2023-02-12T01:21:35.302Z,40.99
2023-02-12T01:23:36.990Z,41.26
2023-02-12T01:25:38.991Z,41.61
2023-02-12T01:27:40.995Z,41.44
2023-02-12T01:29:44.777Z,42.09
2023-02-12T01:31:46.641Z,41.98
2023-02-12T01:33:49.779Z,42.06
2023-02-12T01:35:51.456Z,42.74
2023-02-12T01:37:53.230Z,42.23
2023-02-12T01:39:54.965Z,42.44
2023-02-12T01:41:56.699Z,42.46
2023-02-12T01:44:06.155Z,42.44
2023-02-12T01:46:10.782Z,42.69
2023-02-12T01:48:14.641Z,42.80
2023-02-12T01:50:18.943Z,43.11
2023-02-12T01:52:27.784Z,43.32
2023-02-12T01:54:29.886Z,42.79
2023-02-12T01:56:32.213Z,42.61
2023-02-12T01:58:39.738Z,42.98
2023-02-12T02:00:41.477Z,43.16
2023-02-12T02:02:45.511Z,42.79
2023-02-12T02:04:52.404Z,43.30
2023-02-12T02:06:57.682Z,42.93
2023-02-12T02:08:59.321Z,43.12
2023-02-12T02:11:00.954Z,43.57
2023-02-12T02:13:21.580Z,43.42
2023-02-12T02:15:23.639Z,43.55
2023-02-12T02:17:55.728Z,43.50
2023-02-12T02:20:22.784Z,43.62
2023-02-12T02:23:01.881Z,43.40
2023-02-12T02:25:15.882Z,43.91
2023-02-12T02:27:28.661Z,44.11
2023-02-12T02:30:14.909Z,44.12
2023-02-12T02:32:23.314Z,43.81
2023-02-12T02:34:35.080Z,44.08
2023-02-12T02:37:00.874Z,43.57
2023-02-12T02:39:11.056Z,44.37
2023-02-12T02:41:20.568Z,44.84
2023-02-12T02:43:49.699Z,44.69
2023-02-12T02:45:53.526Z,45.09
2023-02-12T02:48:14.135Z,44.71
2023-02-12T02:50:18.800Z,45.23
2023-02-12T02:52:25.753Z,45.20
2023-02-12T02:54:40.518Z,44.95
2023-02-12T02:56:45.425Z,44.95
2023-02-12T02:58:52.495Z,45.42
2023-02-12T03:01:14.288Z,44.94
2023-02-12T03:03:39.766Z,45.17
2023-02-12T03:05:47.630Z,45.48
2023-02-12T03:07:54.225Z,45.94
2023-02-12T03:10:32.079Z,46.17
2023-02-12T03:12:41.757Z,46.56
2023-02-12T03:14:54.488Z,46.32
2023-02-12T03:17:04.617Z,47.02
2023-02-12T03:19:13.989Z,46.56
2023-02-12T03:21:19.606Z,46.43
2023-02-12T03:23:26.144Z,47.04
2023-02-12T03:25:36.869Z,46.64
2023-02-12T03:27:47.630Z,46.60
2023-02-12T03:29:49.302Z,46.93
2023-02-12T03:32:39.128Z,47.88
2023-02-12T03:35:10.341Z,47.97
2023-02-12T03:37:19.388Z,48.03
2023-02-12T03:39:41.972Z,47.85
2023-02-12T03:42:04.566Z,47.62
2023-02-12T03:44:18.909Z,47.27
2023-02-12T03:46:25.550Z,48.07
2023-02-12T03:48:42.209Z,47.88
2023-02-12T03:50:58.973Z,47.64
2023-02-12T03:53:00.556Z,47.98
2023-02-12T03:55:03.141Z,49.04
2023-02-12T03:57:10.890Z,49.00
2023-02-12T03:59:12.716Z,49.17
2023-02-12T04:01:14.828Z,49.19
2023-02-12T04:03:16.510Z,49.31
2023-02-12T04:05:20.040Z,49.52
2023-02-12T04:07:21.885Z,50.11
2023-02-12T04:09:25.397Z,49.93
2023-02-12T04:11:58.055Z,50.68
2023-02-12T04:14:32.851Z,50.17
2023-02-12T04:16:46.272Z,50.26
2023-02-12T04:18:51.775Z,50.91
2023-02-12T04:21:21.112Z,51.65
2023-02-12T04:23:40.957Z,51.86
2023-02-12T04:25:54.027Z,52.04
2023-02-12T04:27:57.494Z,52.28
2023-02-12T04:30:21.817Z,52.37
2023-02-12T04:32:38.795Z,52.30
2023-02-12T04:34:46.183Z,52.50
2023-02-12T04:36:59.572Z,52.32
2023-02-12T04:39:08.690Z,52.78
2023-02-12T04:41:10.751Z,52.70
2023-02-12T04:43:12.675Z,52.83
2023-02-12T04:45:17.184Z,52.59
2023-02-12T04:47:18.816Z,52.89
2023-02-12T04:49:21.718Z,53.06
2023-02-12T04:51:23.747Z,52.89
2023-02-12T04:53:25.416Z,53.31
2023-02-12T04:55:27.120Z,53.24
2023-02-12T04:57:28.779Z,52.89
2023-02-12T04:59:30.467Z,53.07
2023-02-12T05:01:35.334Z,53.09
2023-02-12T05:03:37.698Z,52.58
2023-02-12T05:05:39.268Z,52.39
2023-02-12T05:07:40.967Z,51.89
2023-02-12T05:09:42.661Z,51.55
2023-02-12T05:11:44.759Z,51.32
2023-02-12T05:13:53.389Z,51.71
2023-02-12T05:15:55.478Z,50.64
2023-02-12T05:17:57.321Z,50.58
2023-02-12T05:19:58.965Z,50.63
2023-02-12T05:22:00.640Z,50.56
2023-02-12T05:24:03.308Z,50.32
2023-02-12T05:26:07.379Z,50.06
2023-02-12T05:28:09.027Z,50.13
2023-02-12T05:30:11.078Z,50.47
2023-02-12T05:32:12.875Z,51.70
2023-02-12T05:34:14.595Z,51.62
2023-02-12T05:36:18.645Z,51.78
2023-02-12T05:38:20.280Z,52.43
2023-02-12T05:40:22.014Z,52.54
2023-02-12T05:42:23.632Z,52.43
2023-02-12T05:44:25.200Z,52.71
2023-02-12T05:46:27.055Z,53.58
2023-02-12T05:48:29.520Z,54.36
2023-02-12T05:50:31.078Z,54.92
2023-02-12T05:52:33.868Z,54.93
2023-02-12T05:54:35.560Z,54.72
2023-02-12T05:56:42.106Z,54.92
2023-02-12T05:58:52.833Z,54.61
2023-02-12T06:00:54.464Z,54.77
2023-02-12T06:02:56.304Z,55.01
2023-02-12T06:04:57.900Z,54.82
2023-02-12T06:07:00.752Z,55.07
2023-02-12T06:09:02.800Z,55.60
2023-02-12T06:11:06.623Z,55.49
2023-02-12T06:13:08.311Z,56.36
2023-02-12T06:15:09.963Z,57.52
2023-02-12T06:17:11.733Z,58.18
2023-02-12T06:19:13.543Z,58.59
2023-02-12T06:21:16.070Z,57.99
2023-02-12T06:23:17.697Z,58.61
2023-02-12T06:25:19.314Z,58.62
2023-02-12T06:27:21.005Z,58.86
2023-02-12T06:29:23.012Z,59.77
2023-02-12T06:31:27.659Z,60.38
2023-02-12T06:33:29.392Z,61.47
2023-02-12T06:35:30.965Z,61.77
2023-02-12T06:37:32.923Z,61.95
2023-02-12T06:39:34.532Z,62.46
2023-02-12T06:41:36.124Z,62.41
2023-02-12T06:43:37.927Z,62.39
2023-02-12T06:45:39.663Z,62.66
2023-02-12T06:47:41.284Z,62.89
2023-02-12T06:49:42.950Z,63.51
2023-02-12T06:51:44.597Z,63.38
2023-02-12T06:53:46.171Z,63.35
2023-02-12T06:55:47.804Z,63.57
2023-02-12T06:57:49.501Z,63.45
2023-02-12T06:59:51.119Z,63.56
2023-02-12T07:01:52.752Z,63.48
2023-02-12T07:03:57.654Z,63.24
2023-02-12T07:05:59.300Z,62.98
2023-02-12T07:08:00.909Z,62.80
2023-02-12T07:10:02.564Z,62.04
2023-02-12T07:12:04.777Z,61.89
2023-02-12T07:14:07.513Z,62.09
2023-02-12T07:16:14.480Z,62.19
2023-02-12T07:18:16.092Z,61.92
2023-02-12T07:20:17.952Z,61.89
2023-02-12T07:22:20.784Z,61.85
2023-02-12T07:24:22.440Z,62.29
2023-02-12T07:26:24.284Z,62.37
2023-02-12T07:28:26.987Z,61.92
2023-02-12T07:30:28.676Z,61.97
2023-02-12T07:32:32.808Z,62.15
2023-02-12T07:34:34.439Z,61.96
2023-02-12T07:36:36.332Z,62.24
2023-02-12T07:38:41.297Z,62.84
2023-02-12T07:40:43.741Z,63.38
2023-02-12T07:42:45.343Z,64.40
2023-02-12T07:44:46.967Z,65.65
2023-02-12T07:46:49.499Z,66.46
2023-02-12T07:48:51.564Z,66.31
2023-02-12T07:50:53.109Z,66.84
2023-02-12T07:52:54.778Z,66.42
2023-02-12T07:54:56.446Z,67.45
2023-02-12T07:56:58.436Z,67.33
2023-02-12T07:59:02.191Z,67.82
2023-02-12T08:01:23.754Z,67.64
2023-02-12T08:03:25.420Z,68.26
2023-02-12T08:05:28.223Z,67.95
2023-02-12T08:07:29.837Z,68.26
2023-02-12T08:09:31.485Z,68.53
2023-02-12T08:11:36.875Z,69.30
2023-02-12T08:13:39.031Z,69.12
2023-02-12T08:15:40.600Z,69.79
2023-02-12T08:17:43.658Z,69.29
2023-02-12T08:19:45.316Z,69.79
2023-02-12T08:21:50.471Z,68.57
2023-02-12T08:23:54.181Z,68.31
2023-02-12T08:25:56.152Z,67.67
2023-02-12T08:27:57.954Z,68.00
2023-02-12T08:29:59.601Z,67.47
2023-02-12T08:32:02.785Z,66.85
2023-02-12T08:34:05.031Z,66.97
2023-02-12T08:36:12.214Z,66.37
2023-02-12T08:38:13.844Z,65.89
2023-02-12T08:40:15.476Z,66.26
2023-02-12T08:42:17.081Z,65.71
2023-02-12T08:44:18.960Z,66.02
2023-02-12T08:46:22.805Z,65.77
2023-02-12T08:48:24.318Z,65.55
2023-02-12T08:50:25.931Z,65.20
2023-02-12T08:52:27.547Z,65.37
2023-02-12T08:54:30.679Z,65.23
2023-02-12T08:56:33.543Z,65.08
2023-02-12T08:58:35.672Z,65.47
2023-02-12T09:00:39.553Z,65.16
2023-02-12T09:02:42.140Z,65.25
2023-02-12T09:04:43.849Z,64.83
2023-02-12T09:06:46.486Z,65.33
2023-02-12T09:08:48.720Z,65.50
2023-02-12T09:10:50.402Z,65.18
2023-02-12T09:12:52.014Z,64.77
2023-02-12T09:14:53.632Z,64.59
2023-02-12T09:16:57.374Z,65.02
2023-02-12T09:18:59.201Z,65.01
2023-02-12T09:21:03.365Z,64.73
2023-02-12T09:23:05.883Z,64.77
2023-02-12T09:25:07.678Z,64.90
2023-02-12T09:27:09.300Z,64.77
2023-02-12T09:29:10.990Z,64.75
2023-02-12T09:31:17.858Z,64.72
2023-02-12T09:33:19.582Z,64.59
2023-02-12T09:35:21.366Z,64.54
2023-02-12T09:37:22.987Z,64.56
2023-02-12T09:39:24.627Z,64.05
2023-02-12T09:42:07.272Z,64.22
2023-02-12T09:44:16.042Z,64.06
2023-02-12T09:46:32.622Z,64.13
2023-02-12T09:49:02.056Z,64.10
2023-02-12T09:51:07.748Z,64.30
2023-02-12T09:53:13.465Z,64.07
2023-02-12T09:55:16.639Z,63.90
2023-02-12T09:57:23.981Z,64.05
2023-02-12T09:59:35.983Z,64.28
2023-02-12T10:01:37.700Z,63.80
2023-02-12T10:03:39.618Z,64.19
2023-02-12T10:05:49.709Z,64.25
2023-02-12T10:08:24.859Z,64.79
2023-02-12T10:10:26.556Z,64.71
2023-02-12T10:12:47.688Z,63.96
2023-02-12T10:15:01.284Z,64.30
2023-02-12T10:17:24.085Z,64.32
2023-02-12T10:19:49.198Z,63.61
2023-02-12T10:22:03.453Z,63.20
2023-02-12T10:24:13.743Z,62.66
2023-02-12T10:26:28.827Z,62.22
2023-02-12T10:28:35.939Z,62.00
2023-02-12T10:30:53.254Z,62.81
2023-02-12T10:32:59.485Z,62.44
2023-02-12T10:35:02.406Z,62.78
2023-02-12T10:37:12.320Z,63.98
2023-02-12T10:39:25.230Z,63.58
2023-02-12T10:41:28.633Z,63.20
2023-02-12T10:43:30.641Z,63.11
2023-02-12T10:45:39.848Z,62.42
2023-02-12T10:47:41.597Z,62.25
2023-02-12T10:49:43.238Z,62.26
2023-02-12T10:51:59.508Z,61.85
2023-02-12T10:54:35.927Z,61.81
2023-02-12T10:56:37.563Z,62.04
2023-02-12T10:58:53.911Z,61.98
2023-02-12T11:01:00.410Z,61.81
2023-02-12T11:03:14.137Z,61.85
2023-02-12T11:05:26.365Z,61.55
2023-02-12T11:07:28.638Z,62.13
2023-02-12T11:09:45.493Z,62.06
2023-02-12T11:11:49.516Z,61.28
2023-02-12T11:14:05.656Z,61.70
2023-02-12T11:16:08.220Z,63.13
2023-02-12T11:18:26.173Z,62.98
2023-02-12T11:20:52.042Z,62.32
2023-02-12T11:23:06.325Z,62.25
2023-02-12T11:25:16.040Z,61.37
2023-02-12T11:27:25.827Z,61.08
2023-02-12T11:29:27.438Z,61.55
2023-02-12T11:31:31.745Z,62.16
2023-02-12T11:33:35.303Z,62.07
2023-02-12T11:35:37.215Z,63.31
2023-02-12T11:37:46.352Z,63.01
2023-02-12T11:39:49.245Z,62.11
2023-02-12T11:41:56.862Z,62.79
2023-02-12T11:43:58.719Z,63.00
2023-02-12T11:46:00.902Z,62.45
2023-02-12T11:48:02.732Z,61.71
2023-02-12T11:50:07.386Z,61.12
2023-02-12T11:52:21.267Z,60.99
2023-02-12T11:54:25.875Z,60.53
2023-02-12T11:56:42.116Z,60.11
2023-02-12T11:58:44.985Z,59.64
2023-02-12T12:01:03.577Z,60.24
2023-02-12T12:03:27.174Z,59.98
2023-02-12T12:05:35.538Z,60.96
2023-02-12T12:07:39.959Z,60.93
2023-02-12T12:09:46.204Z,60.89
2023-02-12T12:12:00.261Z,60.35
2023-02-12T12:14:07.281Z,59.80
2023-02-12T12:16:31.939Z,59.35
2023-02-12T12:18:51.949Z,58.48
2023-02-12T12:20:57.003Z,58.84
2023-02-12T12:23:19.438Z,59.72
2023-02-12T12:25:25.626Z,59.18
2023-02-12T12:28:00.896Z,58.77
2023-02-12T12:30:07.019Z,58.68
2023-02-12T12:32:10.430Z,58.50
2023-02-12T12:34:20.622Z,58.67
2023-02-12T12:36:55.868Z,59.32
2023-02-12T12:39:24.985Z,59.21
2023-02-12T12:41:49.967Z,58.58
2023-02-12T12:44:03.860Z,58.75
2023-02-12T12:46:18.647Z,58.75
2023-02-12T12:48:26.065Z,58.65
2023-02-12T12:50:43.395Z,58.37
2023-02-12T12:52:50.696Z,59.02
2023-02-12T12:55:26.384Z,60.33
2023-02-12T12:57:44.306Z,61.20
2023-02-12T12:59:53.485Z,60.57
2023-02-12T13:02:00.344Z,59.76
2023-02-12T13:04:26.729Z,60.07
2023-02-12T13:06:40.372Z,59.30
2023-02-12T13:09:00.809Z,59.09
2023-02-12T13:11:28.625Z,59.01
2023-02-12T13:13:33.269Z,58.19
2023-02-12T13:15:55.351Z,58.42
2023-02-12T13:18:09.747Z,59.12
2023-02-12T13:20:22.545Z,59.41
2023-02-12T13:23:00.329Z,58.58
2023-02-12T13:25:19.357Z,59.12
2023-02-12T13:27:24.666Z,58.63
2023-02-12T13:29:51.890Z,59.02
2023-02-12T13:31:57.315Z,59.90
2023-02-12T13:34:02.341Z,59.44
2023-02-12T13:36:05.929Z,59.50
2023-02-12T13:38:09.518Z,59.70
2023-02-12T13:40:22.565Z,59.44
2023-02-12T13:42:50.527Z,59.62
2023-02-12T13:45:18.158Z,59.69
2023-02-12T13:47:45.628Z,59.48
2023-02-12T13:49:52.186Z,60.22
2023-02-12T13:52:00.558Z,59.65
2023-02-12T13:54:11.167Z,59.56
2023-02-12T13:56:29.830Z,59.57
2023-02-12T13:58:31.764Z,59.27
2023-02-12T14:00:51.458Z,59.25
2023-02-12T14:02:53.257Z,59.89
2023-02-12T14:05:03.524Z,59.36
2023-02-12T14:07:10.034Z,59.61
2023-02-12T14:09:11.708Z,59.63
2023-02-12T14:11:16.700Z,59.41
2023-02-12T14:13:21.736Z,59.92
2023-02-12T14:15:36.681Z,60.82
2023-02-12T14:17:40.480Z,60.50
2023-02-12T14:19:51.258Z,60.18
2023-02-12T14:21:52.958Z,59.80
2023-02-12T14:23:54.566Z,59.85
2023-02-12T14:26:14.073Z,59.51
2023-02-12T14:28:26.749Z,59.20
2023-02-12T14:30:39.176Z,59.35
2023-02-12T14:32:44.977Z,59.33
2023-02-12T14:34:47.083Z,58.77
2023-02-12T14:36:51.495Z,58.45
2023-02-12T14:38:58.607Z,59.35
2023-02-12T14:41:45.173Z,59.27
2023-02-12T14:44:01.655Z,59.06
2023-02-12T14:46:24.874Z,59.14
2023-02-12T14:48:45.301Z,59.41
2023-02-12T14:50:52.023Z,59.82
2023-02-12T14:52:59.355Z,59.85
2023-02-12T14:55:39.096Z,59.83
2023-02-12T14:57:41.457Z,59.71
2023-02-12T14:59:44.293Z,60.07
2023-02-12T15:01:46.098Z,60.66
2023-02-12T15:03:51.442Z,62.41
2023-02-12T15:06:13.208Z,62.63
2023-02-12T15:08:39.394Z,62.33
2023-02-12T15:10:50.679Z,62.01
2023-02-12T15:13:00.255Z,61.47
2023-02-12T15:15:01.795Z,61.07
2023-02-12T15:17:10.150Z,61.75
2023-02-12T15:19:39.499Z,63.61
2023-02-12T15:21:41.694Z,63.25
2023-02-12T15:23:45.430Z,62.70
2023-02-12T15:25:50.736Z,62.41
2023-02-12T15:27:58.936Z,61.84
2023-02-12T15:30:00.675Z,61.93
2023-02-12T15:32:05.080Z,61.68
2023-02-12T15:34:06.816Z,61.58
2023-02-12T15:36:09.939Z,61.27
2023-02-12T15:38:21.364Z,61.62
2023-02-12T15:40:23.521Z,61.41
2023-02-12T15:42:28.698Z,62.00
2023-02-12T15:44:32.576Z,61.01
2023-02-12T15:46:34.137Z,61.87
2023-02-12T15:48:36.963Z,61.99
2023-02-12T15:50:50.623Z,62.25
2023-02-12T15:52:53.051Z,61.38
2023-02-12T15:54:55.070Z,61.13
2023-02-12T15:56:56.796Z,61.49
2023-02-12T15:59:00.781Z,61.74
2023-02-12T16:01:05.813Z,61.20
2023-02-12T16:03:21.155Z,61.54
2023-02-12T16:05:23.131Z,61.25
2023-02-12T16:07:26.335Z,61.22
2023-02-12T16:09:32.283Z,62.05
2023-02-12T16:11:34.589Z,60.64
2023-02-12T16:13:37.091Z,60.72
2023-02-12T16:15:40.354Z,60.79
2023-02-12T16:17:47.345Z,61.23
2023-02-12T16:20:04.479Z,61.36
2023-02-12T16:22:07.604Z,61.25
2023-02-12T16:24:37.969Z,61.27
2023-02-12T16:26:39.674Z,60.58
2023-02-12T16:28:46.948Z,61.04
2023-02-12T16:30:48.693Z,60.65
2023-02-12T16:32:50.745Z,60.56
2023-02-12T16:35:25.284Z,60.67
2023-02-12T16:37:38.962Z,61.75
2023-02-12T16:40:06.108Z,62.29
2023-02-12T16:42:15.226Z,62.13
2023-02-12T16:44:16.860Z,62.24
2023-02-12T16:46:19.136Z,62.63
2023-02-12T16:48:24.837Z,63.24
2023-02-12T16:50:30.324Z,62.92
2023-02-12T16:52:37.741Z,62.33
2023-02-12T16:54:39.476Z,62.73
2023-02-12T16:56:42.031Z,62.72
2023-02-12T16:58:44.878Z,62.61
2023-02-12T17:00:46.703Z,62.38
2023-02-12T17:02:48.550Z,62.45
2023-02-12T17:04:50.191Z,62.38
2023-02-12T17:06:52.024Z,62.15
2023-02-12T17:08:53.646Z,62.43
2023-02-12T17:10:55.247Z,63.24
2023-02-12T17:12:56.858Z,63.02
2023-02-12T17:14:58.466Z,62.95
2023-02-12T17:17:00.096Z,62.78
2023-02-12T17:19:01.815Z,63.06
2023-02-12T17:21:05.779Z,62.97
2023-02-12T17:23:07.214Z,62.56
2023-02-12T17:25:10.204Z,62.03
2023-02-12T17:27:13.834Z,61.70
2023-02-12T17:29:15.420Z,62.22
2023-02-12T17:31:17.246Z,62.42
2023-02-12T17:33:19.330Z,62.68
2023-02-12T17:35:21.002Z,62.28
2023-02-12T17:37:24.652Z,62.28
2023-02-12T17:39:26.251Z,62.48
2023-02-12T17:41:27.917Z,62.61
2023-02-12T17:43:29.536Z,62.33
2023-02-12T17:45:31.493Z,62.34
2023-02-12T17:47:39.708Z,62.11
2023-02-12T17:49:42.061Z,62.31
2023-02-12T17:51:43.711Z,62.08
2023-02-12T17:53:45.674Z,61.86
2023-02-12T17:55:47.263Z,62.05
2023-02-12T17:57:53.260Z,61.67
2023-02-12T17:59:54.863Z,61.84
2023-02-12T18:01:56.621Z,62.08
2023-02-12T18:03:58.899Z,62.30
2023-02-12T18:06:00.618Z,62.25
2023-02-12T18:08:03.617Z,62.23
2023-02-12T18:10:06.822Z,62.66
2023-02-12T18:12:08.788Z,62.51
2023-02-12T18:14:11.512Z,62.65
2023-02-12T18:16:14.026Z,61.97
2023-02-12T18:18:16.798Z,62.09
2023-02-12T18:20:18.462Z,62.27
2023-02-12T18:22:21.240Z,62.37
2023-02-12T18:24:22.854Z,62.69
2023-02-12T18:26:24.558Z,63.30
2023-02-12T18:28:26.220Z,62.47
2023-02-12T18:30:28.597Z,62.51
2023-02-12T18:32:30.367Z,62.54
2023-02-12T18:34:32.046Z,62.60
2023-02-12T18:36:33.754Z,62.67
2023-02-12T18:38:36.557Z,62.99
2023-02-12T18:40:40.335Z,62.24
2023-02-12T18:42:42.082Z,62.03
2023-02-12T18:44:43.760Z,62.49
2023-02-12T18:46:45.461Z,63.10
2023-02-12T18:48:47.429Z,65.01
2023-02-12T18:50:51.772Z,65.64
2023-02-12T18:52:53.575Z,66.14
2023-02-12T18:54:55.427Z,66.15
2023-02-12T18:56:57.058Z,66.36
2023-02-12T18:58:59.878Z,66.29
2023-02-12T19:01:01.963Z,65.87
2023-02-12T19:03:03.691Z,66.13
2023-02-12T19:05:05.597Z,66.54
2023-02-12T19:07:07.176Z,66.76
2023-02-12T19:09:09.233Z,67.13
2023-02-12T19:11:11.680Z,66.61
2023-02-12T19:13:13.248Z,66.99
2023-02-12T19:15:14.814Z,66.34
2023-02-12T19:17:16.560Z,65.40
2023-02-12T19:19:21.930Z,64.62
2023-02-12T19:21:26.399Z,64.51
2023-02-12T19:23:28.120Z,64.34
2023-02-12T19:25:29.685Z,63.95
2023-02-12T19:27:31.958Z,63.79
2023-02-12T19:29:33.607Z,63.61
2023-02-12T19:31:37.904Z,63.67
2023-02-12T19:33:41.038Z,63.85
2023-02-12T19:35:43.231Z,64.24
2023-02-12T19:37:44.796Z,64.63
2023-02-12T19:39:46.465Z,64.39
2023-02-12T19:41:48.775Z,64.54
2023-02-12T19:43:58.471Z,63.80
2023-02-12T19:46:20.664Z,63.74
2023-02-12T19:48:22.328Z,63.76
2023-02-12T19:50:23.962Z,63.88
2023-02-12T19:52:25.662Z,63.95
2023-02-12T19:54:27.427Z,63.36
2023-02-12T19:56:29.096Z,63.56
2023-02-12T19:58:31.286Z,63.24
2023-02-12T20:00:32.853Z,64.39
2023-02-12T20:02:34.579Z,64.76
2023-02-12T20:04:37.007Z,64.64
2023-02-12T20:06:39.538Z,64.58
2023-02-12T20:08:42.062Z,64.28
2023-02-12T20:10:43.748Z,64.78
2023-02-12T20:12:45.450Z,64.59
2023-02-12T20:14:47.009Z,64.60
2023-02-12T20:16:50.183Z,64.95
2023-02-12T20:18:53.569Z,65.02
2023-02-12T20:20:55.416Z,64.93
2023-02-12T20:22:57.239Z,64.44
2023-02-12T20:24:58.802Z,64.28
2023-02-12T20:27:01.773Z,64.00
2023-02-12T20:29:05.378Z,64.22
2023-02-12T20:31:12.630Z,63.67
2023-02-12T20:33:14.416Z,63.67
2023-02-12T20:35:16.225Z,63.92
2023-02-12T20:37:18.949Z,64.67
2023-02-12T20:39:21.020Z,64.72
2023-02-12T20:41:23.796Z,64.27
2023-02-12T20:43:25.418Z,64.27
2023-02-12T20:45:27.125Z,64.05
2023-02-12T20:47:29.048Z,64.04
2023-02-12T20:49:30.698Z,64.23
2023-02-12T20:51:32.915Z,63.95
2023-02-12T20:53:35.435Z,63.83
2023-02-12T20:55:37.096Z,63.60
2023-02-12T20:57:38.764Z,63.59
2023-02-12T20:59:40.479Z,63.88
2023-02-12T21:01:42.996Z,63.98
2023-02-12T21:03:45.124Z,64.30
2023-02-12T21:05:46.732Z,65.02
2023-02-12T21:07:49.827Z,65.90
2023-02-12T21:09:51.481Z,66.29
2023-02-12T21:11:53.195Z,66.92
2023-02-12T21:14:18.365Z,66.65
2023-02-12T21:16:18.523Z,66.92
2023-02-12T21:18:24.210Z,67.08
2023-02-12T21:20:25.899Z,66.50
2023-02-12T21:22:27.532Z,66.82
2023-02-12T21:24:29.211Z,66.19
2023-02-12T21:26:32.397Z,66.09
2023-02-12T21:28:34.746Z,65.82
2023-02-12T21:30:36.441Z,65.02
2023-02-12T21:32:37.989Z,65.13
2023-02-12T21:34:39.700Z,65.26
2023-02-12T21:36:42.357Z,65.44
2023-02-12T21:38:45.596Z,65.14
2023-02-12T21:40:47.240Z,65.05
2023-02-12T21:42:48.936Z,64.98
2023-02-12T21:44:50.633Z,64.80
2023-02-12T21:46:52.722Z,64.59
2023-02-12T21:48:55.378Z,64.64
2023-02-12T21:50:57.482Z,64.31
2023-02-12T21:52:59.258Z,65.02
2023-02-12T21:55:00.945Z,65.26
2023-02-12T21:57:02.613Z,66.14
2023-02-12T21:59:04.509Z,67.17
2023-02-12T22:01:11.436Z,67.17
2023-02-12T22:03:13.166Z,67.39
2023-02-12T22:05:14.887Z,66.64
2023-02-12T22:07:16.791Z,67.01
2023-02-12T22:09:20.630Z,66.87
2023-02-12T22:11:23.383Z,66.71
2023-02-12T22:13:24.994Z,65.85
2023-02-12T22:15:26.640Z,66.34
2023-02-12T22:17:28.304Z,66.93
2023-02-12T22:19:29.935Z,66.73
2023-02-12T22:21:34.895Z,66.62
2023-02-12T22:23:37.226Z,66.48
2023-02-12T22:25:38.910Z,66.52
2023-02-12T22:27:40.528Z,66.69
2023-02-12T22:29:42.157Z,66.68
2023-02-12T22:31:45.474Z,66.68
2023-02-12T22:33:47.848Z,66.58
2023-02-12T22:35:49.498Z,66.79
2023-02-12T22:37:51.101Z,66.63
2023-02-12T22:39:52.752Z,66.88
2023-02-12T22:41:54.662Z,67.15
2023-02-12T22:43:59.107Z,67.32
2023-02-12T22:46:01.107Z,67.79
2023-02-12T22:48:02.830Z,67.89
2023-02-12T22:50:05.123Z,67.58
2023-02-12T22:52:06.723Z,68.28
2023-02-12T22:54:13.402Z,68.39
2023-02-12T22:56:15.666Z,67.91
2023-02-12T22:58:17.558Z,68.18
2023-02-12T23:00:19.879Z,67.78
2023-02-12T23:02:21.507Z,67.43
2023-02-12T23:04:23.973Z,67.48
2023-02-12T23:06:29.266Z,67.34
2023-02-12T23:08:31.754Z,67.76
2023-02-12T23:10:33.516Z,67.79
2023-02-12T23:12:35.204Z,67.96
2023-02-12T23:14:36.781Z,68.39
2023-02-12T23:16:38.482Z,68.06
2023-02-12T23:18:40.169Z,67.35
2023-02-12T23:20:41.924Z,68.59
2023-02-12T23:22:43.586Z,69.10
2023-02-12T23:24:46.078Z,68.76
2023-02-12T23:26:47.775Z,68.64
2023-02-12T23:28:49.466Z,68.86
2023-02-12T23:30:52.232Z,68.79
2023-02-12T23:32:54.155Z,69.20
2023-02-12T23:34:55.860Z,69.09
2023-02-12T23:36:57.584Z,69.30
2023-02-12T23:38:59.442Z,68.94
2023-02-12T23:41:01.052Z,68.71
2023-02-12T23:43:02.749Z,68.96
2023-02-12T23:45:04.560Z,68.87
2023-02-12T23:47:06.195Z,68.95
2023-02-12T23:49:07.897Z,68.23
2023-02-12T23:51:10.240Z,68.14
2023-02-12T23:53:12.312Z,68.61
2023-02-12T23:55:13.958Z,68.54
2023-02-12T23:57:15.779Z,68.24
2023-02-12T23:59:17.554Z,68.17
